Time;durP1;ratioP1;P1;durP2;ratioP2;P2;SDS_P1;SDS_P2;PMS_P1;PMS_P2;Temp;Humidity;BMP_temperature;BMP_pressure;BME280_temperature;BME280_humidity;BME280_pressure;Samples;Min_cycle;Max_cycle;Signal;HPM_P1;HPM_P2
2024/02/26 00:01:52;;;;;;;1.30;1.20;;;8.40;99.90;;;;;;5049261;28;20028;-53
2024/02/26 00:04:17;;;;;;;51.45;26.90;;;8.40;99.90;;;;;;5066651;28;20453;-52
2024/02/26 00:06:43;;;;;;;65.32;33.15;;;8.30;99.90;;;;;;5066279;28;20115;-54
2024/02/26 00:09:09;;;;;;;1.88;1.77;;;8.30;99.90;;;;;;5048229;28;20048;-51
2024/02/26 00:11:36;;;;;;;1.38;1.27;;;8.30;99.90;;;;;;5048656;28;20036;-51
2024/02/26 00:14:01;;;;;;;1.90;1.20;;;8.30;99.90;;;;;;5050288;28;20108;-59
2024/02/26 00:16:27;;;;;;;1.30;1.20;;;8.30;99.90;;;;;;5055785;28;20099;-53
2024/02/26 00:18:52;;;;;;;1.70;1.60;;;8.20;99.90;;;;;;5067691;28;20400;-55
2024/02/26 00:21:18;;;;;;;2.40;1.60;;;8.30;99.90;;;;;;5069094;28;20032;-55
2024/02/26 00:23:44;;;;;;;1.50;1.25;;;8.20;99.90;;;;;;5068903;28;20557;-60
2024/02/26 00:26:10;;;;;;;1.52;1.30;;;8.20;99.90;;;;;;5068672;28;20407;-56
2024/02/26 00:28:36;;;;;;;2.85;1.15;;;8.20;99.90;;;;;;5067675;28;20060;-58
2024/02/26 00:31:02;;;;;;;1.35;1.25;;;8.30;99.90;;;;;;5068814;28;20526;-56
2024/02/26 00:33:28;;;;;;;1.65;1.40;;;8.20;99.90;;;;;;5069780;28;20043;-54
2024/02/26 00:35:53;;;;;;;2.60;1.40;;;8.30;99.90;;;;;;5068669;28;20036;-49
2024/02/26 00:38:19;;;;;;;4.55;1.50;;;8.30;99.90;;;;;;5068106;28;20032;-56
2024/02/26 00:40:44;;;;;;;2.00;1.63;;;8.30;99.90;;;;;;5057522;28;20031;-59
2024/02/26 00:43:10;;;;;;;2.38;1.50;;;8.30;99.90;;;;;;5049405;28;20039;-57
2024/02/26 00:45:35;;;;;;;1.40;1.30;;;8.30;99.90;;;;;;5047982;28;20108;-57
2024/02/26 00:48:04;;;;;;;1.73;1.63;;;8.30;99.90;;;;;;5047819;28;20068;-59
2024/02/26 00:50:30;;;;;;;4.32;2.35;;;8.30;99.90;;;;;;5046795;28;20072;-55
2024/02/26 00:52:55;;;;;;;1.50;1.40;;;8.30;99.90;;;;;;5048135;28;20032;-55
2024/02/26 00:55:21;;;;;;;1.63;1.40;;;8.30;99.90;;;;;;5048780;28;20055;-58
2024/02/26 00:57:46;;;;;;;1.55;1.40;;;8.30;99.90;;;;;;5048489;28;20025;-56
2024/02/26 01:00:13;;;;;;;1.77;1.65;;;8.30;99.90;;;;;;5048045;28;20045;-53
2024/02/26 01:02:38;;;;;;;1.75;1.65;;;8.30;99.90;;;;;;5047865;28;20029;-51
2024/02/26 01:05:06;;;;;;;2.00;1.85;;;8.30;99.90;;;;;;5047981;28;20110;-52
2024/02/26 01:07:35;;;;;;;2.35;1.30;;;8.30;99.90;;;;;;5047935;28;20052;-57
2024/02/26 01:10:01;;;;;;;1.58;1.48;;;8.20;99.90;;;;;;5047921;28;20057;-54
2024/02/26 01:12:27;;;;;;;3.67;1.77;;;8.20;99.90;;;;;;5049942;28;20029;-52
2024/02/26 01:14:52;;;;;;;2.30;1.60;;;8.30;99.90;;;;;;5052247;28;20427;-50
2024/02/26 01:17:18;;;;;;;1.92;1.75;;;8.30;99.90;;;;;;5053837;28;20041;-53
2024/02/26 01:19:44;;;;;;;2.45;1.58;;;8.30;99.90;;;;;;5052634;28;20029;-53
2024/02/26 01:22:09;;;;;;;1.85;1.67;;;8.40;99.90;;;;;;5059380;28;20407;-54
2024/02/26 01:24:35;;;;;;;1.70;1.45;;;8.40;99.90;;;;;;5068195;28;20128;-50
2024/02/26 01:27:00;;;;;;;1.55;1.45;;;8.30;99.90;;;;;;5052467;28;20051;-57
2024/02/26 01:29:26;;;;;;;2.22;1.70;;;8.40;99.90;;;;;;5050272;28;20025;-56
2024/02/26 01:31:51;;;;;;;4.88;1.50;;;8.30;99.90;;;;;;5055567;28;20017;-53
2024/02/26 01:34:18;;;;;;;1.83;1.42;;;8.30;99.90;;;;;;5057902;28;20116;-55
2024/02/26 01:36:44;;;;;;;1.42;1.33;;;8.30;99.90;;;;;;5051356;28;20341;-53
2024/02/26 01:39:12;;;;;;;2.03;1.58;;;8.30;99.90;;;;;;5053874;28;20029;-52
2024/02/26 01:41:38;;;;;;;2.40;1.50;;;8.30;99.90;;;;;;5052721;28;20096;-54
2024/02/26 01:44:04;;;;;;;1.70;1.52;;;8.40;99.90;;;;;;5057889;28;20021;-53
2024/02/26 01:46:31;;;;;;;2.83;1.50;;;8.40;99.90;;;;;;5073387;28;20544;-52
2024/02/26 01:48:57;;;;;;;1.40;1.30;;;8.50;99.90;;;;;;5072592;28;20029;-53
2024/02/26 01:51:22;;;;;;;3.38;1.40;;;8.50;99.90;;;;;;5074043;28;20042;-52
2024/02/26 01:53:48;;;;;;;1.58;1.48;;;8.50;99.90;;;;;;5073846;28;20029;-50
2024/02/26 01:56:16;;;;;;;2.42;1.42;;;8.40;99.90;;;;;;5073674;28;20024;-52
2024/02/26 01:58:42;;;;;;;5.00;2.00;;;8.40;99.90;;;;;;5073704;28;20494;-51
2024/02/26 02:01:08;;;;;;;1.52;1.42;;;8.50;99.90;;;;;;5073817;28;20052;-52
2024/02/26 02:03:33;;;;;;;1.83;1.73;;;8.50;99.90;;;;;;5073716;28;20095;-56
2024/02/26 02:05:59;;;;;;;1.95;1.75;;;8.40;99.90;;;;;;5074014;28;20020;-52
2024/02/26 02:08:25;;;;;;;1.77;1.67;;;8.30;99.90;;;;;;5089237;22;20070;-53
2024/02/26 02:10:51;;;;;;;2.20;1.75;;;8.30;99.90;;;;;;5025785;28;20349;-52
2024/02/26 02:13:16;;;;;;;2.50;1.55;;;8.30;99.90;;;;;;5030426;28;20527;-53
2024/02/26 02:15:42;;;;;;;1.42;1.33;;;8.30;99.90;;;;;;5029215;28;20088;-56
2024/02/26 02:18:07;;;;;;;3.53;1.30;;;8.30;99.90;;;;;;5030263;28;20049;-53
2024/02/26 02:20:34;;;;;;;2.47;1.45;;;8.20;99.90;;;;;;5015693;28;20033;-56
2024/02/26 02:23:00;;;;;;;2.97;1.63;;;8.10;99.90;;;;;;5030358;28;20369;-56
2024/02/26 02:25:25;;;;;;;2.13;1.65;;;8.20;99.90;;;;;;5014445;28;20038;-53
2024/02/26 02:27:54;;;;;;;1.77;1.65;;;8.30;99.90;;;;;;5013862;28;20033;-55
2024/02/26 02:30:20;;;;;;;3.65;1.50;;;8.30;99.90;;;;;;5013806;28;20389;-56
2024/02/26 02:32:46;;;;;;;3.25;1.67;;;8.40;99.90;;;;;;5013506;28;20033;-55
2024/02/26 02:35:11;;;;;;;1.65;1.55;;;8.30;99.90;;;;;;5012208;28;20022;-58
2024/02/26 02:37:37;;;;;;;1.60;1.50;;;8.20;99.90;;;;;;5011904;28;20088;-56
2024/02/26 02:40:03;;;;;;;1.67;1.58;;;8.40;99.90;;;;;;5013173;28;20033;-57
2024/02/26 02:42:28;;;;;;;3.58;1.48;;;8.40;99.90;;;;;;5013321;28;20034;-55
2024/02/26 02:44:54;;;;;;;2.08;1.88;;;8.30;99.90;;;;;;5013301;28;20034;-57
2024/02/26 02:47:19;;;;;;;4.05;1.70;;;8.30;99.90;;;;;;5013156;28;20080;-56
2024/02/26 02:49:45;;;;;;;2.30;1.77;;;8.30;99.90;;;;;;5013127;28;20516;-58
2024/02/26 02:52:10;;;;;;;3.78;1.42;;;8.20;99.90;;;;;;5013156;28;20025;-60
2024/02/26 02:54:38;;;;;;;2.58;2.22;;;8.20;99.90;;;;;;5013669;28;20029;-59
2024/02/26 02:57:03;;;;;;;4.60;1.95;;;8.20;99.90;;;;;;5011729;28;20021;-56
2024/02/26 02:59:29;;;;;;;2.95;1.55;;;8.20;99.90;;;;;;5013025;28;20100;-57
2024/02/26 03:01:54;;;;;;;3.35;1.80;;;8.10;99.90;;;;;;5011722;28;20037;-56
2024/02/26 03:04:20;;;;;;;1.48;1.38;;;8.20;99.90;;;;;;5011661;28;20025;-56
2024/02/26 03:06:45;;;;;;;1.58;1.40;;;8.20;99.90;;;;;;5012809;28;20056;-58
2024/02/26 03:09:11;;;;;;;2.67;1.85;;;8.20;99.90;;;;;;5012671;28;20038;-56
2024/02/26 03:11:36;;;;;;;3.55;1.52;;;8.20;99.90;;;;;;5012935;28;20485;-57
2024/02/26 03:14:02;;;;;;;4.60;1.67;;;8.20;99.90;;;;;;5012667;28;20038;-55
2024/02/26 03:16:27;;;;;;;1.75;1.65;;;8.30;99.90;;;;;;5012731;28;20084;-55
2024/02/26 03:18:53;;;;;;;3.47;1.90;;;8.30;99.90;;;;;;5012731;28;20026;-53
2024/02/26 03:21:18;;;;;;;2.17;1.80;;;8.40;99.90;;;;;;5011532;28;20367;-57
2024/02/26 03:23:44;;;;;;;3.65;2.00;;;8.40;99.90;;;;;;5012608;28;20065;-53
2024/02/26 03:26:13;;;;;;;2.65;2.00;;;8.40;99.90;;;;;;5012247;28;20022;-53
2024/02/26 03:28:39;;;;;;;3.25;1.67;;;8.40;99.90;;;;;;5012271;28;20450;-55
2024/02/26 03:31:04;;;;;;;5.53;1.90;;;8.30;99.90;;;;;;5027378;28;20145;-55
2024/02/26 03:33:30;;;;;;;1.85;1.75;;;8.30;99.90;;;;;;5011699;28;20033;-52
2024/02/26 03:35:55;;;;;;;3.75;1.77;;;8.20;99.90;;;;;;5012588;28;20175;-57
2024/02/26 03:38:21;;;;;;;1.58;1.48;;;8.20;99.90;;;;;;5011954;28;20052;-58
2024/02/26 03:40:46;;;;;;;1.67;1.58;;;8.20;99.90;;;;;;5012949;28;20022;-57
2024/02/26 03:43:12;;;;;;;1.88;1.77;;;8.30;99.90;;;;;;5012367;28;20109;-56
2024/02/26 03:45:38;;;;;;;2.13;1.92;;;8.20;99.90;;;;;;5012062;28;20052;-58
2024/02/26 03:48:04;;;;;;;1.80;1.40;;;8.20;99.90;;;;;;5012044;28;20065;-55
2024/02/26 03:50:29;;;;;;;1.77;1.67;;;8.20;99.90;;;;;;5012104;28;20026;-59
2024/02/26 03:52:55;;;;;;;2.63;1.90;;;8.30;99.90;;;;;;5011835;28;20097;-56
2024/02/26 03:55:24;;;;;;;1.45;1.40;;;8.10;99.90;;;;;;5012036;28;20033;-54
2024/02/26 03:57:53;;;;;;;1.65;1.52;;;8.00;99.90;;;;;;5011878;28;20393;-58
2024/02/26 04:00:19;;;;;;;3.13;1.95;;;8.00;99.90;;;;;;5010736;28;20397;-55
2024/02/26 04:02:46;;;;;;;2.15;1.70;;;7.90;99.90;;;;;;5012288;28;20026;-56
2024/02/26 04:05:12;;;;;;;6.78;2.03;;;8.00;99.90;;;;;;5010723;28;20037;-52
2024/02/26 04:07:39;;;;;;;2.90;2.35;;;8.10;99.90;;;;;;5011664;28;20030;-58
2024/02/26 04:10:09;;;;;;;4.35;2.17;;;8.00;99.90;;;;;;5011642;28;20042;-59
2024/02/26 04:12:34;;;;;;;4.30;2.10;;;7.90;99.90;;;;;;5011762;28;20034;-58
2024/02/26 04:15:00;;;;;;;2.22;2.05;;;7.90;99.90;;;;;;5027313;28;20025;-57
2024/02/26 04:17:25;;;;;;;2.38;1.92;;;7.90;99.90;;;;;;5011880;28;20101;-56
2024/02/26 04:19:51;;;;;;;3.80;2.10;;;7.80;99.90;;;;;;5011968;28;20033;-56
2024/02/26 04:22:16;;;;;;;3.30;2.15;;;7.70;99.90;;;;;;5011925;28;20022;-58
2024/02/26 04:24:42;;;;;;;5.55;2.53;;;7.60;99.90;;;;;;5011683;28;20068;-55
2024/02/26 04:27:08;;;;;;;3.95;2.20;;;7.60;99.90;;;;;;5011590;28;20101;-56
2024/02/26 04:29:33;;;;;;;3.05;2.63;;;7.50;99.90;;;;;;5012005;28;20346;-56
2024/02/26 04:31:59;;;;;;;4.88;3.05;;;7.50;99.90;;;;;;5011635;28;20033;-57
2024/02/26 04:34:25;;;;;;;3.40;2.42;;;7.50;99.90;;;;;;5011390;28;20065;-55
2024/02/26 04:36:51;;;;;;;5.40;2.10;;;7.40;99.90;;;;;;5010311;28;20030;-52
2024/02/26 04:39:16;;;;;;;3.35;2.70;;;7.50;99.90;;;;;;5010156;28;20018;-55
2024/02/26 04:41:41;;;;;;;3.78;2.35;;;7.60;99.90;;;;;;5011630;28;20026;-55
2024/02/26 04:44:07;;;;;;;5.85;2.72;;;7.50;99.90;;;;;;5011459;28;20034;-54
2024/02/26 04:46:33;;;;;;;8.00;3.08;;;7.50;99.90;;;;;;5014705;28;20072;-57
2024/02/26 04:48:58;;;;;;;4.20;2.33;;;7.40;99.90;;;;;;5014095;28;20033;-60
2024/02/26 04:51:24;;;;;;;5.20;2.40;;;7.40;99.90;;;;;;5015683;28;20034;-58
2024/02/26 04:53:49;;;;;;;2.88;2.22;;;7.50;99.90;;;;;;5015286;28;20026;-57
2024/02/26 04:56:15;;;;;;;7.68;2.63;;;7.50;99.90;;;;;;5013854;28;20033;-56
2024/02/26 04:58:40;;;;;;;4.82;1.98;;;7.50;99.90;;;;;;5015346;28;20512;-56
2024/02/26 05:01:06;;;;;;;2.50;2.25;;;7.40;99.90;;;;;;5015495;28;20021;-58
2024/02/26 05:03:31;;;;;;;7.65;2.75;;;7.40;99.90;;;;;;5015022;28;20034;-56
2024/02/26 05:05:58;;;;;;;3.75;2.70;;;7.40;99.90;;;;;;5014937;28;20033;-54
2024/02/26 05:08:23;;;;;;;2.40;2.00;;;7.50;99.90;;;;;;5014964;28;20437;-53
2024/02/26 05:10:49;;;;;;;8.35;3.00;;;7.50;99.90;;;;;;5015075;28;20034;-57
2024/02/26 05:13:16;;;;;;;4.88;2.75;;;7.50;99.90;;;;;;5014953;28;20034;-55
2024/02/26 05:15:41;;;;;;;5.78;2.95;;;7.50;99.90;;;;;;5014911;28;20018;-56
2024/02/26 05:18:07;;;;;;;7.45;3.97;;;7.30;99.90;;;;;;5014690;28;20029;-54
2024/02/26 05:20:35;;;;;;;5.60;2.95;;;7.20;99.90;;;;;;5014722;28;20069;-58
2024/02/26 05:23:00;;;;;;;4.47;2.58;;;7.20;99.90;;;;;;5014740;28;20493;-55
2024/02/26 05:25:26;;;;;;;2.85;2.28;;;7.10;99.90;;;;;;5014777;28;20087;-55
2024/02/26 05:27:51;;;;;;;15.77;4.20;;;7.00;99.90;;;;;;5014599;28;20490;-55
2024/02/26 05:30:17;;;;;;;9.43;3.00;;;6.90;99.90;;;;;;5014489;28;20069;-58
2024/02/26 05:32:42;;;;;;;4.93;2.53;;;6.90;99.90;;;;;;5014431;28;20040;-53
2024/02/26 05:35:08;;;;;;;7.45;2.90;;;6.80;99.90;;;;;;5013353;28;20109;-55
2024/02/26 05:37:34;;;;;;;2.80;2.53;;;6.70;99.90;;;;;;5014306;28;20417;-58
2024/02/26 05:39:59;;;;;;;2.63;2.42;;;6.70;99.90;;;;;;5014268;28;20389;-55
2024/02/26 05:42:25;;;;;;;2.90;2.53;;;6.60;99.90;;;;;;5014185;28;20028;-56
2024/02/26 05:44:50;;;;;;;5.90;2.83;;;6.60;99.90;;;;;;5014090;28;20018;-55
2024/02/26 05:47:17;;;;;;;6.80;3.20;;;6.70;99.90;;;;;;5029187;28;20132;-54
2024/02/26 05:49:42;;;;;;;7.40;2.90;;;6.60;99.90;;;;;;5014193;28;20045;-55
2024/02/26 05:52:08;;;;;;;3.42;2.92;;;6.50;99.90;;;;;;5029475;28;20076;-54
2024/02/26 05:54:33;;;;;;;6.93;2.85;;;6.50;99.90;;;;;;5013918;28;20307;-54
2024/02/26 05:56:59;;;;;;;6.45;3.53;;;6.50;99.90;;;;;;5013175;28;20025;-56
2024/02/26 05:59:24;;;;;;;7.78;4.07;;;6.50;99.90;;;;;;5012759;28;20018;-53
2024/02/26 06:01:50;;;;;;;10.30;3.85;;;6.50;99.90;;;;;;5013903;28;20030;-58
2024/02/26 06:04:17;;;;;;;7.32;4.07;;;6.50;99.90;;;;;;5013791;28;20053;-56
2024/02/26 06:06:44;;;;;;;7.45;3.90;;;6.60;99.90;;;;;;5013824;28;20109;-53
2024/02/26 06:09:11;;;;;;;5.97;4.38;;;6.50;99.90;;;;;;5013731;28;20033;-50
2024/02/26 06:11:36;;;;;;;6.30;4.10;;;6.50;99.90;;;;;;5013941;28;20025;-53
2024/02/26 06:14:02;;;;;;;9.60;4.50;;;6.50;99.90;;;;;;5029006;28;20033;-49
2024/02/26 06:16:27;;;;;;;8.40;4.80;;;6.50;99.90;;;;;;5013472;28;20029;-54
2024/02/26 06:18:53;;;;;;;8.45;5.13;;;6.50;99.90;;;;;;5013631;28;20101;-55
2024/02/26 06:21:18;;;;;;;5.47;4.60;;;6.50;99.90;;;;;;5012500;28;20100;-52
2024/02/26 06:23:44;;;;;;;6.40;4.65;;;6.50;99.90;;;;;;5012557;28;20489;-56
2024/02/26 06:26:10;;;;;;;8.07;4.95;;;6.50;99.90;;;;;;5013599;28;20028;-50
2024/02/26 06:28:35;;;;;;;7.97;5.07;;;6.50;99.90;;;;;;5013359;28;20093;-53
2024/02/26 06:31:01;;;;;;;8.15;5.18;;;6.50;99.90;;;;;;5013433;28;20129;-55
2024/02/26 06:33:27;;;;;;;13.65;6.00;;;6.50;99.90;;;;;;5013263;28;20112;-52
2024/02/26 06:35:52;;;;;;;5.38;4.82;;;6.40;99.90;;;;;;5012416;28;20432;-58
2024/02/26 06:38:18;;;;;;;10.45;5.35;;;6.40;99.90;;;;;;5013194;28;20109;-55
2024/02/26 06:40:44;;;;;;;6.53;5.10;;;6.40;99.90;;;;;;5013287;28;20699;-59
2024/02/26 06:43:10;;;;;;;7.45;5.03;;;6.40;99.90;;;;;;5013231;28;20564;-58
2024/02/26 06:45:35;;;;;;;7.82;5.43;;;6.40;99.90;;;;;;5013235;28;20105;-56
2024/02/26 06:48:02;;;;;;;7.95;6.20;;;6.40;99.90;;;;;;5013212;28;20037;-50
2024/02/26 06:50:27;;;;;;;9.32;5.85;;;6.40;99.90;;;;;;5013045;28;20018;-56
2024/02/26 06:52:53;;;;;;;11.13;5.72;;;6.40;99.90;;;;;;5028284;28;20025;-50
2024/02/26 06:55:19;;;;;;;8.20;5.97;;;6.30;99.90;;;;;;5028219;28;20120;-56
2024/02/26 06:57:44;;;;;;;9.00;5.50;;;6.40;99.90;;;;;;5012946;28;20026;-56
2024/02/26 07:00:14;;;;;;;15.23;5.95;;;6.30;99.90;;;;;;5012977;28;20069;-55
2024/02/26 07:02:40;;;;;;;11.68;5.57;;;6.30;99.90;;;;;;5012936;28;20489;-54
2024/02/26 07:05:06;;;;;;;9.43;5.95;;;6.40;99.90;;;;;;5012978;28;20025;-57
2024/02/26 07:07:31;;;;;;;7.40;5.85;;;6.30;99.90;;;;;;5028017;28;20026;-54
2024/02/26 07:09:57;;;;;;;9.35;5.63;;;6.30;99.90;;;;;;5027806;28;20398;-54
2024/02/26 07:12:23;;;;;;;9.70;5.57;;;6.20;99.90;;;;;;5012717;28;20029;-60
2024/02/26 07:14:49;;;;;;;10.45;5.72;;;6.30;99.90;;;;;;5011338;28;20025;-57
2024/02/26 07:17:16;;;;;;;11.02;5.85;;;6.40;99.90;;;;;;5012667;28;20022;-54
2024/02/26 07:19:41;;;;;;;7.82;6.10;;;6.30;99.90;;;;;;5012890;28;20524;-57
2024/02/26 07:22:07;;;;;;;8.73;6.18;;;6.30;99.90;;;;;;5011258;28;20022;-57
2024/02/26 07:24:32;;;;;;;7.93;5.40;;;6.30;99.90;;;;;;5012472;28;20022;-54
2024/02/26 07:26:58;;;;;;;8.73;6.57;;;6.30;99.90;;;;;;5012410;28;20105;-57
2024/02/26 07:29:23;;;;;;;6.80;5.93;;;6.30;99.90;;;;;;5012539;28;20509;-59
2024/02/26 07:31:49;;;;;;;7.28;5.95;;;6.30;99.90;;;;;;5012886;28;20026;-54
2024/02/26 07:34:14;;;;;;;11.65;6.10;;;6.20;99.90;;;;;;5010900;28;20030;-51
2024/02/26 07:36:40;;;;;;;7.15;5.50;;;6.30;99.90;;;;;;5027862;28;20022;-55
2024/02/26 07:39:05;;;;;;;7.07;5.90;;;6.30;99.90;;;;;;5012831;28;20037;-56
2024/02/26 07:41:31;;;;;;;10.07;7.35;;;6.40;99.90;;;;;;5012680;28;20022;-58
2024/02/26 07:43:56;;;;;;;8.20;6.57;;;6.40;99.90;;;;;;5012355;28;20032;-55
2024/02/26 07:46:22;;;;;;;6.97;5.63;;;6.40;99.90;;;;;;5012262;28;20041;-58
2024/02/26 07:48:47;;;;;;;11.52;6.15;;;6.30;99.90;;;;;;5012540;28;20474;-53
2024/02/26 07:51:14;;;;;;;10.90;6.13;;;6.30;99.90;;;;;;5011189;28;20029;-56
2024/02/26 07:53:39;;;;;;;9.18;6.47;;;6.30;99.90;;;;;;5012518;28;20078;-52
2024/02/26 07:56:05;;;;;;;11.00;6.43;;;6.30;99.90;;;;;;5012236;28;20496;-56
2024/02/26 07:58:33;;;;;;;10.77;6.63;;;6.30;99.90;;;;;;5011743;28;20022;-56
2024/02/26 08:00:58;;;;;;;10.80;6.53;;;6.30;99.90;;;;;;5012136;28;20290;-58
2024/02/26 08:03:24;;;;;;;12.30;6.40;;;6.30;99.90;;;;;;5011876;28;20417;-54
2024/02/26 08:05:50;;;;;;;8.75;6.45;;;6.40;99.90;;;;;;5027125;28;20025;-58
2024/02/26 08:08:16;;;;;;;9.80;6.30;;;6.40;99.90;;;;;;5011828;28;20034;-52
2024/02/26 08:10:41;;;;;;;6.53;5.50;;;6.50;99.90;;;;;;5055918;22;20056;-52
2024/02/26 08:13:07;;;;;;;10.38;6.30;;;6.50;99.90;;;;;;5051352;28;20025;-55
2024/02/26 08:15:34;;;;;;;10.57;5.85;;;6.50;99.90;;;;;;5051403;28;20029;-49
2024/02/26 08:18:02;;;;;;;11.57;6.32;;;6.50;99.90;;;;;;5050014;28;20040;-53
2024/02/26 08:20:28;;;;;;;14.52;5.97;;;6.50;99.90;;;;;;5051053;28;20464;-52
2024/02/26 08:22:53;;;;;;;11.30;6.35;;;6.60;99.90;;;;;;5051380;28;20021;-50
2024/02/26 08:25:19;;;;;;;12.23;6.45;;;6.60;99.90;;;;;;5049926;28;20055;-50
2024/02/26 08:27:44;;;;;;;9.57;6.75;;;6.70;99.90;;;;;;5051240;28;20396;-52
2024/02/26 08:30:13;;;;;;;8.95;6.13;;;6.70;99.90;;;;;;5051204;28;20111;-55
2024/02/26 08:32:38;;;;;;;8.60;5.70;;;6.60;99.90;;;;;;5050976;28;20030;-51
2024/02/26 08:35:04;;;;;;;7.65;6.15;;;6.60;99.90;;;;;;5050028;28;20392;-55
2024/02/26 08:37:30;;;;;;;8.35;5.72;;;6.60;99.90;;;;;;5051136;28;20203;-55
2024/02/26 08:39:56;;;;;;;8.10;5.90;;;6.60;99.90;;;;;;5049959;28;20037;-56
2024/02/26 08:42:24;;;;;;;10.63;6.78;;;6.60;99.90;;;;;;5051128;28;20396;-51
2024/02/26 08:44:49;;;;;;;8.13;6.45;;;6.50;99.90;;;;;;5051095;28;20022;-53
2024/02/26 08:47:15;;;;;;;12.73;7.25;;;6.60;99.90;;;;;;5051263;28;20040;-50
2024/02/26 08:49:45;;;;;;;8.23;5.80;;;6.60;99.90;;;;;;5050537;28;20017;-57
2024/02/26 08:52:11;;;;;;;7.25;5.25;;;6.60;99.90;;;;;;5050944;28;20032;-55
2024/02/26 08:54:36;;;;;;;10.95;6.70;;;6.60;99.90;;;;;;5051027;28;20029;-51
2024/02/26 08:57:02;;;;;;;10.05;6.30;;;6.50;99.90;;;;;;5051010;28;20021;-49
2024/02/26 08:59:28;;;;;;;7.22;5.15;;;6.60;99.90;;;;;;5049718;28;20021;-53
2024/02/26 09:01:54;;;;;;;12.00;6.28;;;6.60;99.90;;;;;;5051275;28;20413;-50
2024/02/26 09:04:19;;;;;;;8.95;6.13;;;6.70;99.90;;;;;;5050795;28;20095;-51
2024/02/26 09:06:45;;;;;;;10.20;6.43;;;6.70;99.90;;;;;;5050883;28;20087;-54
2024/02/26 09:09:10;;;;;;;9.68;6.05;;;6.80;99.90;;;;;;5050897;28;20029;-49
2024/02/26 09:11:36;;;;;;;8.15;6.35;;;6.80;99.90;;;;;;5049784;28;20029;-50
2024/02/26 09:14:03;;;;;;;11.52;6.95;;;6.80;99.90;;;;;;5051139;28;20021;-53
2024/02/26 09:16:29;;;;;;;13.23;6.28;;;6.80;99.90;;;;;;5050911;28;20017;-51
2024/02/26 09:18:54;;;;;;;9.35;6.00;;;6.80;99.90;;;;;;5049716;28;20021;-50
2024/02/26 09:21:23;;;;;;;8.70;6.35;;;6.80;99.90;;;;;;5049404;28;20056;-53
2024/02/26 09:23:49;;;;;;;8.85;5.50;;;6.80;99.90;;;;;;5050889;28;20044;-54
2024/02/26 09:26:15;;;;;;;7.57;5.95;;;6.80;99.90;;;;;;5050664;28;20032;-47
2024/02/26 09:28:40;;;;;;;9.75;6.78;;;6.70;99.90;;;;;;5050895;28;20024;-57
2024/02/26 09:31:06;;;;;;;10.05;5.57;;;6.70;99.90;;;;;;5059455;28;20090;-57
2024/02/26 09:33:32;;;;;;;8.02;6.07;;;6.70;99.90;;;;;;5052181;28;20050;-55
2024/02/26 09:35:58;;;;;;;8.18;5.75;;;6.80;99.90;;;;;;5053507;28;20099;-56
2024/02/26 09:38:23;;;;;;;9.98;6.50;;;6.80;99.90;;;;;;5053602;28;20116;-52
2024/02/26 09:40:49;;;;;;;10.55;6.78;;;6.80;99.90;;;;;;5054104;28;20130;-53
2024/02/26 09:43:20;;;;;;;12.85;6.97;;;6.70;99.90;;;;;;5053788;28;20470;-52
2024/02/26 09:45:47;;;;;;;9.55;6.45;;;6.80;99.90;;;;;;5052916;28;20031;-52
2024/02/26 09:48:13;;;;;;;9.93;6.47;;;6.90;99.90;;;;;;5053957;28;20529;-55
2024/02/26 09:50:41;;;;;;;7.45;6.20;;;6.90;99.90;;;;;;5038631;28;20116;-55
2024/02/26 09:53:10;;;;;;;10.02;6.55;;;6.90;99.90;;;;;;5033544;28;20090;-54
2024/02/26 09:55:36;;;;;;;13.27;7.03;;;7.00;99.90;;;;;;5046614;28;20017;-57
2024/02/26 09:58:03;;;;;;;8.10;5.95;;;7.10;99.90;;;;;;5054001;28;20074;-52
2024/02/26 10:00:33;;;;;;;7.78;6.18;;;7.30;99.90;;;;;;5053600;28;20017;-53
2024/02/26 10:03:03;;;;;;;10.10;5.78;;;7.30;99.90;;;;;;5054043;28;20134;-52
2024/02/26 10:05:29;;;;;;;8.20;5.63;;;7.50;99.90;;;;;;5053847;28;20025;-54
2024/02/26 10:07:57;;;;;;;8.88;6.07;;;7.60;99.90;;;;;;5053748;28;20039;-56
2024/02/26 10:10:23;;;;;;;7.82;5.60;;;7.70;99.90;;;;;;5053305;28;20135;-52
2024/02/26 10:12:49;;;;;;;7.45;5.30;;;7.80;99.90;;;;;;5053635;28;20103;-53
2024/02/26 10:15:14;;;;;;;8.20;5.65;;;7.80;99.90;;;;;;5053581;28;20021;-51
2024/02/26 10:17:41;;;;;;;8.95;5.53;;;7.80;99.90;;;;;;5053281;28;20025;-53
2024/02/26 10:20:23;;;;;;;8.50;5.63;;;7.90;99.90;;;;;;5053248;28;20051;-54
2024/02/26 10:22:49;;;;;;;7.85;5.68;;;8.10;99.90;;;;;;5052190;28;20699;-53
2024/02/26 10:25:15;;;;;;;6.47;5.25;;;8.20;99.90;;;;;;5053120;28;20029;-54
2024/02/26 10:27:42;;;;;;;9.43;6.10;;;8.30;99.90;;;;;;5052045;28;20041;-56
2024/02/26 10:30:19;;;;;;;8.85;5.53;;;8.40;99.90;;;;;;5051394;28;20060;-55
2024/02/26 10:32:46;;;;;;;7.97;4.90;;;8.40;99.90;;;;;;5053297;28;20032;-54
2024/02/26 10:35:12;;;;;;;6.03;5.18;;;8.20;99.90;;;;;;5046923;28;20473;-54
2024/02/26 10:37:40;;;;;;;7.63;5.18;;;8.30;99.90;;;;;;5031879;28;20029;-52
2024/02/26 10:40:06;;;;;;;6.47;5.35;;;8.20;99.90;;;;;;5033201;28;20026;-55
2024/02/26 10:42:32;;;;;;;7.95;5.43;;;8.20;99.90;;;;;;5032721;28;20033;-53
2024/02/26 10:44:58;;;;;;;7.47;5.05;;;8.30;99.90;;;;;;5033208;28;20033;-50
2024/02/26 10:47:24;;;;;;;11.88;5.30;;;8.40;99.90;;;;;;5036969;28;20056;-53
2024/02/26 10:49:50;;;;;;;7.68;5.15;;;8.50;99.90;;;;;;5046523;28;20029;-52
2024/02/26 10:52:18;;;;;;;6.60;5.13;;;8.50;99.90;;;;;;5053055;28;20025;-54
2024/02/26 10:54:47;;;;;;;5.63;5.05;;;8.50;99.90;;;;;;5052694;28;20032;-55
2024/02/26 10:57:15;;;;;;;5.68;4.78;;;8.60;99.90;;;;;;5052150;28;20017;-54
2024/02/26 10:59:42;;;;;;;19.63;12.98;;;8.70;99.90;;;;;;5051339;28;20397;-51
2024/02/26 11:02:10;;;;;;;38.65;24.23;;;8.80;99.90;;;;;;5052546;28;20528;-50
2024/02/26 11:04:36;;;;;;;68.97;33.85;;;9.00;99.90;;;;;;5039165;28;20055;-53
2024/02/26 11:07:02;;;;;;;9.43;6.13;;;9.00;99.90;;;;;;5052431;28;20036;-50
2024/02/26 11:09:28;;;;;;;7.47;5.30;;;9.00;99.90;;;;;;5052352;28;20404;-56
2024/02/26 11:11:54;;;;;;;6.97;5.07;;;9.20;99.90;;;;;;5067153;28;20117;-57
2024/02/26 11:14:21;;;;;;;6.45;4.38;;;9.10;99.90;;;;;;5072859;28;20105;-53
2024/02/26 11:16:48;;;;;;;7.13;5.80;;;8.90;99.90;;;;;;5072008;28;20020;-52
2024/02/26 11:19:13;;;;;;;7.28;4.90;;;8.90;99.90;;;;;;5072889;28;20090;-52
2024/02/26 11:21:41;;;;;;;8.43;5.18;;;9.00;99.90;;;;;;5066626;28;20608;-50
2024/02/26 11:24:10;;;;;;;6.40;4.82;;;9.00;99.90;;;;;;5055617;28;20119;-53
2024/02/26 11:26:50;;;;;;;6.53;4.45;;;9.00;99.90;;;;;;5074055;28;20035;-49
2024/02/26 11:29:21;;;;;;;7.60;5.10;;;9.10;99.90;;;;;;5055426;28;20101;-52
2024/02/26 11:31:47;;;;;;;6.35;4.75;;;9.10;99.90;;;;;;5052662;28;20063;-53
2024/02/26 11:34:13;;;;;;;7.57;5.78;;;9.30;99.90;;;;;;5052219;28;20024;-52
2024/02/26 11:36:39;;;;;;;6.18;5.07;;;9.40;99.90;;;;;;5051842;28;20017;-54
2024/02/26 11:39:05;;;;;;;6.50;4.70;;;9.50;99.90;;;;;;5051723;28;20487;-52
2024/02/26 11:41:31;;;;;;;6.32;4.93;;;9.60;99.90;;;;;;5047121;28;20059;-50
2024/02/26 11:44:02;;;;;;;6.50;5.20;;;9.60;99.90;;;;;;5051602;28;20025;-51
2024/02/26 11:46:30;;;;;;;6.72;4.90;;;9.70;99.90;;;;;;5050505;28;20047;-48
2024/02/26 11:49:03;;;;;;;9.73;5.00;;;9.70;99.90;;;;;;5051603;28;20067;-48
2024/02/26 11:51:33;;;;;;;6.68;5.35;;;10.00;99.90;;;;;;5050235;28;20024;-54
2024/02/26 11:53:59;;;;;;;7.95;4.75;;;10.00;99.90;;;;;;5052041;28;20504;-55
2024/02/26 11:56:29;;;;;;;5.53;4.95;;;10.00;99.90;;;;;;5050460;28;20029;-52
2024/02/26 11:58:59;;;;;;;5.38;4.85;;;10.00;99.90;;;;;;5049582;28;20361;-52
2024/02/26 12:01:45;;;;;;;5.55;4.90;;;10.00;99.90;;;;;;5051362;28;20125;-53
2024/02/26 12:04:29;;;;;;;7.07;5.45;;;9.90;99.90;;;;;;5048276;28;20025;-52
2024/02/26 12:07:00;;;;;;;8.07;4.68;;;9.90;99.90;;;;;;5048833;28;20024;-53
2024/02/26 12:09:40;;;;;;;6.93;5.13;;;9.90;99.90;;;;;;5051785;28;20107;-53
2024/02/26 12:12:13;;;;;;;5.85;4.57;;;9.80;99.90;;;;;;5052289;28;20025;-58
2024/02/26 12:14:40;;;;;;;5.07;4.38;;;9.80;99.90;;;;;;5043122;28;20021;-46
2024/02/26 12:17:18;;;;;;;6.20;4.30;;;9.70;99.90;;;;;;5053257;28;20049;-50
2024/02/26 12:19:45;;;;;;;5.05;4.45;;;9.70;99.90;;;;;;5050596;28;20480;-52
2024/02/26 12:22:13;;;;;;;5.90;4.78;;;9.70;99.90;;;;;;5053705;28;20029;-50
2024/02/26 12:24:39;;;;;;;6.13;5.25;;;9.80;99.90;;;;;;5052401;28;20377;-51
2024/02/26 12:27:04;;;;;;;7.63;4.75;;;9.90;99.90;;;;;;5051226;28;20035;-52
2024/02/26 12:29:30;;;;;;;8.07;4.90;;;9.90;99.90;;;;;;5044853;28;20037;-54
2024/02/26 12:31:55;;;;;;;5.25;4.35;;;10.00;99.90;;;;;;5045230;28;20082;-52
2024/02/26 12:34:22;;;;;;;7.47;4.53;;;10.00;99.90;;;;;;5053871;28;20484;-54
2024/02/26 12:36:47;;;;;;;7.60;5.53;;;9.90;99.90;;;;;;5054083;28;20017;-51
2024/02/26 12:39:13;;;;;;;12.85;6.80;;;10.00;99.90;;;;;;5053356;28;20074;-53
2024/02/26 12:41:39;;;;;;;5.78;4.60;;;10.00;99.90;;;;;;5052549;28;20051;-48
2024/02/26 12:44:06;;;;;;;6.85;4.80;;;10.00;99.90;;;;;;5052190;28;20029;-53
2024/02/26 12:46:32;;;;;;;6.30;4.43;;;9.80;99.90;;;;;;5050521;28;20099;-50
2024/02/26 12:48:58;;;;;;;6.45;4.60;;;9.90;99.90;;;;;;5050964;28;20083;-51
2024/02/26 12:51:26;;;;;;;5.13;4.32;;;10.00;99.90;;;;;;5050116;28;20107;-51